Time;durP1;ratioP1;P1;durP2;ratioP2;P2;SDS_P1;SDS_P2;PMS_P1;PMS_P2;Temp;Humidity;BMP_temperature;BMP_pressure;BME280_temperature;BME280_humidity;BME280_pressure;Samples;Min_cycle;Max_cycle;Signal;HPM_P1;HPM_P2
2022/11/29 00:01:35;;;;;;;12.27;9.70;;;6.70;99.90;;;;;;5011127;28;20207;-48
2022/11/29 00:04:01;;;;;;;11.73;9.33;;;6.60;99.90;;;;;;4993947;28;20183;-48
2022/11/29 00:06:30;;;;;;;13.53;10.00;;;6.60;99.90;;;;;;4993405;28;20644;-49
2022/11/29 00:08:58;;;;;;;12.63;9.47;;;6.60;99.90;;;;;;4977153;28;20183;-48
2022/11/29 00:14:13;;;;;;;11.70;9.60;;;6.60;99.90;;;;;;5011488;28;20190;-48
2022/11/29 00:16:40;;;;;;;14.07;9.90;;;6.60;99.90;;;;;;4993619;28;20209;-49
2022/11/29 00:19:06;;;;;;;13.30;10.00;;;6.60;99.90;;;;;;5025861;28;20182;-49
2022/11/29 00:21:32;;;;;;;14.47;11.07;;;6.60;99.90;;;;;;5026240;28;20195;-48
2022/11/29 00:23:58;;;;;;;11.60;9.67;;;6.60;99.90;;;;;;4977342;28;20182;-49
2022/11/29 00:26:24;;;;;;;12.13;9.57;;;6.60;99.90;;;;;;4993194;28;20195;-48
2022/11/29 00:28:51;;;;;;;11.53;9.20;;;6.60;99.90;;;;;;4992708;28;20265;-48
2022/11/29 00:31:25;;;;;;;11.83;8.50;;;6.60;99.90;;;;;;5004553;28;20195;-47
2022/11/29 00:33:52;;;;;;;10.10;8.17;;;6.60;99.90;;;;;;4974273;28;20190;-49
2022/11/29 00:36:18;;;;;;;11.97;8.47;;;6.60;99.90;;;;;;5024904;28;20258;-49
2022/11/29 00:38:44;;;;;;;11.37;7.87;;;6.70;99.90;;;;;;4993047;28;20202;-47
2022/11/29 00:41:10;;;;;;;10.33;7.83;;;6.60;99.90;;;;;;5011360;28;20250;-47
2022/11/29 00:43:36;;;;;;;10.90;8.50;;;6.70;99.90;;;;;;4993367;28;20174;-48
2022/11/29 00:46:03;;;;;;;9.73;8.00;;;6.70;99.90;;;;;;4993231;28;20178;-48
2022/11/29 00:48:29;;;;;;;12.13;8.03;;;6.70;99.90;;;;;;5010795;28;20190;-48
2022/11/29 00:50:55;;;;;;;10.73;8.73;;;6.70;99.90;;;;;;4994123;28;20221;-49
2022/11/29 00:53:21;;;;;;;9.37;7.70;;;6.70;99.90;;;;;;4993863;28;20249;-48
2022/11/29 00:55:49;;;;;;;10.80;8.60;;;6.70;99.90;;;;;;4995207;28;20206;-48
2022/11/29 00:58:15;;;;;;;11.47;8.23;;;6.70;99.90;;;;;;4979332;28;20175;-48
2022/11/29 01:00:40;;;;;;;10.00;7.93;;;6.70;99.90;;;;;;4980033;28;20535;-48
2022/11/29 01:03:06;;;;;;;11.33;7.37;;;6.70;99.90;;;;;;4979810;28;20182;-48
2022/11/29 01:05:32;;;;;;;9.70;8.07;;;6.60;99.90;;;;;;4996352;28;20198;-48
2022/11/29 01:07:58;;;;;;;9.53;7.93;;;6.60;99.90;;;;;;4996307;28;20213;-49
2022/11/29 01:10:24;;;;;;;8.97;8.03;;;6.60;99.90;;;;;;4980544;28;20250;-49
2022/11/29 01:12:50;;;;;;;9.47;7.70;;;6.60;99.90;;;;;;5014016;28;20198;-48
2022/11/29 01:15:16;;;;;;;8.03;7.10;;;6.60;99.90;;;;;;4996254;28;20186;-48
2022/11/29 01:17:42;;;;;;;9.13;7.00;;;6.60;99.90;;;;;;5013482;28;20190;-48
2022/11/29 01:20:10;;;;;;;8.20;6.47;;;6.60;99.90;;;;;;4980622;28;20175;-48
2022/11/29 01:22:38;;;;;;;7.23;6.00;;;6.60;99.90;;;;;;4996291;28;20203;-48
2022/11/29 01:25:06;;;;;;;9.90;6.57;;;6.60;99.90;;;;;;5014011;28;20173;-48
2022/11/29 01:27:33;;;;;;;9.30;6.60;;;6.60;99.90;;;;;;4995969;28;20190;-49
2022/11/29 01:29:59;;;;;;;8.00;6.53;;;6.60;99.90;;;;;;4994335;28;20194;-48
2022/11/29 01:32:24;;;;;;;8.93;6.87;;;6.60;99.90;;;;;;4979228;28;20213;-48
2022/11/29 01:34:50;;;;;;;7.10;5.80;;;6.60;99.90;;;;;;4979517;28;20282;-48
2022/11/29 01:37:16;;;;;;;7.90;6.00;;;6.60;99.90;;;;;;4995991;28;20282;-48
2022/11/29 01:39:42;;;;;;;8.57;6.40;;;6.60;99.90;;;;;;4996082;28;20167;-49
2022/11/29 01:42:12;;;;;;;6.97;5.43;;;6.60;99.90;;;;;;4996055;28;20210;-47
2022/11/29 01:44:38;;;;;;;9.17;5.77;;;6.60;99.90;;;;;;4995802;28;20182;-48
2022/11/29 01:47:04;;;;;;;7.47;5.47;;;6.60;99.90;;;;;;5013606;28;20171;-48
2022/11/29 01:49:37;;;;;;;6.50;5.20;;;6.60;99.90;;;;;;4995938;28;20202;-47
2022/11/29 01:52:07;;;;;;;7.50;5.30;;;6.60;99.90;;;;;;5028807;28;20207;-47
2022/11/29 01:54:38;;;;;;;8.93;5.23;;;6.60;99.90;;;;;;5028680;28;20175;-48
2022/11/29 01:57:06;;;;;;;7.50;5.43;;;6.60;99.90;;;;;;5027926;28;20230;-48
2022/11/29 01:59:34;;;;;;;7.07;4.63;;;6.60;99.90;;;;;;4995906;28;20233;-48
2022/11/29 02:02:14;;;;;;;6.60;4.77;;;6.60;99.90;;;;;;4994497;28;20277;-48
2022/11/29 02:04:43;;;;;;;6.90;4.77;;;6.60;99.90;;;;;;4995541;28;20183;-48
2022/11/29 02:07:09;;;;;;;6.90;5.17;;;6.60;99.90;;;;;;5013045;28;20234;-48
2022/11/29 02:09:35;;;;;;;5.63;4.50;;;6.70;99.90;;;;;;5013207;28;20186;-48
2022/11/29 02:12:28;;;;;;;4.47;4.00;;;6.60;99.90;;;;;;5013207;28;20202;-48
2022/11/29 02:15:22;;;;;;;5.60;4.03;;;6.60;99.90;;;;;;4992673;28;20192;-48
2022/11/29 02:18:10;;;;;;;5.67;4.17;;;6.60;99.90;;;;;;4995126;28;20197;-48
2022/11/29 02:20:44;;;;;;;6.40;4.13;;;6.60;99.90;;;;;;4995496;28;20230;-48
2022/11/29 02:23:28;;;;;;;6.70;4.77;;;6.60;99.90;;;;;;5013104;28;20219;-48
2022/11/29 02:26:19;;;;;;;7.10;4.40;;;6.60;99.90;;;;;;4995480;28;20190;-48
2022/11/29 02:29:12;;;;;;;4.80;3.80;;;6.60;99.90;;;;;;5011430;28;20182;-48
2022/11/29 02:32:13;;;;;;;5.83;4.00;;;6.60;99.90;;;;;;4995373;28;20238;-48
2022/11/29 02:35:19;;;;;;;6.63;4.20;;;6.60;99.90;;;;;;5009932;28;20673;-48
2022/11/29 02:38:26;;;;;;;7.73;4.37;;;6.60;99.90;;;;;;5027796;28;20205;-47
2022/11/29 02:40:55;;;;;;;6.77;3.93;;;6.60;99.90;;;;;;5027842;28;20187;-48
2022/11/29 02:43:48;;;;;;;3.80;2.97;;;6.60;99.90;;;;;;5027854;28;20176;-48
2022/11/29 02:46:51;;;;;;;4.83;3.17;;;6.50;99.90;;;;;;5010983;28;20199;-48
2022/11/29 02:49:32;;;;;;;5.83;3.13;;;6.60;99.90;;;;;;5027434;28;20189;-48
2022/11/29 02:52:02;;;;;;;4.60;2.83;;;6.60;99.90;;;;;;4994797;28;20209;-48
2022/11/29 02:54:34;;;;;;;3.77;3.03;;;6.60;99.90;;;;;;4994399;28;20190;-49
2022/11/29 02:57:18;;;;;;;3.93;2.83;;;6.60;99.90;;;;;;4994376;28;20257;-48
2022/11/29 02:59:58;;;;;;;7.03;2.97;;;6.50;99.90;;;;;;5011448;28;20176;-48
2022/11/29 03:02:53;;;;;;;4.87;2.77;;;6.50;99.90;;;;;;4978322;28;20209;-48
2022/11/29 03:05:53;;;;;;;3.83;2.57;;;6.50;99.90;;;;;;4969535;28;20190;-47
2022/11/29 03:08:37;;;;;;;6.53;2.80;;;6.50;99.90;;;;;;4981407;28;20572;-49
2022/11/29 03:11:23;;;;;;;5.70;2.67;;;6.50;99.90;;;;;;5012121;28;20209;-48
2022/11/29 03:14:13;;;;;;;4.00;2.67;;;6.50;99.90;;;;;;5010148;28;20182;-48
2022/11/29 03:17:02;;;;;;;3.77;2.17;;;6.50;99.90;;;;;;4968373;28;20303;-48
2022/11/29 03:19:49;;;;;;;4.60;2.70;;;6.50;99.90;;;;;;4978237;28;20205;-47
2022/11/29 03:22:34;;;;;;;5.57;2.70;;;6.40;99.90;;;;;;5003937;28;20210;-48
2022/11/29 03:25:25;;;;;;;6.13;2.70;;;6.40;99.90;;;;;;5011534;28;20209;-47
2022/11/29 03:28:19;;;;;;;4.73;2.73;;;6.40;99.90;;;;;;4993705;28;20184;-48
2022/11/29 03:31:20;;;;;;;3.07;2.40;;;6.40;99.90;;;;;;5012267;28;20201;-47
2022/11/29 03:34:23;;;;;;;6.33;3.00;;;6.40;99.90;;;;;;4967367;28;20578;-49
2022/11/29 03:37:03;;;;;;;5.23;2.43;;;6.40;99.90;;;;;;5001139;28;20218;-47
2022/11/29 03:39:52;;;;;;;3.93;2.47;;;6.40;99.90;;;;;;5026915;28;20186;-48
2022/11/29 03:42:29;;;;;;;7.73;2.60;;;6.40;99.90;;;;;;4990736;28;20206;-48
2022/11/29 03:45:07;;;;;;;7.87;3.47;;;6.40;99.90;;;;;;4990730;28;20337;-48
2022/11/29 03:47:49;;;;;;;4.53;2.40;;;6.40;99.90;;;;;;4974497;28;20692;-48
2022/11/29 03:50:24;;;;;;;5.20;2.67;;;6.40;99.90;;;;;;4974533;28;20194;-48
2022/11/29 03:53:17;;;;;;;7.10;2.70;;;6.40;99.90;;;;;;4983106;28;20209;-47
2022/11/29 03:55:49;;;;;;;5.67;2.43;;;6.30;99.90;;;;;;4966882;28;20260;-48
2022/11/29 03:58:43;;;;;;;6.43;2.77;;;6.30;99.90;;;;;;4993672;28;20179;-48
2022/11/29 04:01:21;;;;;;;7.60;2.67;;;6.30;99.90;;;;;;5011397;28;20208;-48
2022/11/29 04:04:18;;;;;;;6.47;2.27;;;6.30;99.90;;;;;;4993903;28;20209;-47
2022/11/29 04:06:49;;;;;;;7.90;2.80;;;6.40;99.90;;;;;;5006502;28;20250;-48
2022/11/29 04:09:39;;;;;;;4.33;2.30;;;6.40;99.90;;;;;;5009524;28;20198;-48
2022/11/29 04:12:24;;;;;;;5.50;2.30;;;6.40;99.90;;;;;;4993300;28;20233;-48
2022/11/29 04:15:22;;;;;;;7.03;2.63;;;6.40;99.90;;;;;;4976659;28;20273;-47
2022/11/29 04:18:03;;;;;;;9.20;2.87;;;6.40;99.90;;;;;;4980745;28;20209;-47
2022/11/29 04:20:49;;;;;;;3.40;2.20;;;6.40;99.90;;;;;;4993164;28;20186;-48
2022/11/29 04:23:45;;;;;;;5.20;2.20;;;6.40;99.90;;;;;;4992970;28;20238;-48
2022/11/29 04:26:13;;;;;;;7.00;2.50;;;6.40;99.90;;;;;;4992528;28;20323;-48
2022/11/29 04:29:01;;;;;;;8.73;2.50;;;6.40;99.90;;;;;;5004761;28;20184;-48
2022/11/29 04:32:04;;;;;;;6.37;2.40;;;6.40;99.90;;;;;;4997264;28;20194;-47
2022/11/29 04:34:49;;;;;;;7.77;2.73;;;6.40;99.90;;;;;;5013373;28;20186;-47
2022/11/29 04:37:53;;;;;;;7.67;2.93;;;6.40;99.90;;;;;;5012939;28;20209;-47
2022/11/29 04:40:40;;;;;;;4.73;2.60;;;6.40;99.90;;;;;;4969174;28;20196;-49
2022/11/29 04:43:18;;;;;;;3.20;2.13;;;6.40;99.90;;;;;;4993510;28;20197;-48
2022/11/29 04:46:18;;;;;;;4.77;2.40;;;6.40;99.90;;;;;;4995279;28;20186;-48
2022/11/29 04:49:22;;;;;;;9.07;2.50;;;6.40;99.90;;;;;;4996852;28;20190;-48
2022/11/29 04:52:09;;;;;;;8.30;2.70;;;6.40;99.90;;;;;;5012524;28;20216;-48
2022/11/29 04:55:03;;;;;;;7.73;2.47;;;6.40;99.90;;;;;;4979366;28;20190;-48
2022/11/29 04:57:34;;;;;;;5.10;2.50;;;6.40;99.90;;;;;;5013762;28;20202;-49
2022/11/29 05:00:11;;;;;;;7.00;2.97;;;6.40;99.90;;;;;;5010787;28;20217;-48
2022/11/29 05:02:50;;;;;;;4.50;2.57;;;6.40;99.90;;;;;;5012763;28;20203;-47
2022/11/29 05:05:42;;;;;;;5.63;2.83;;;6.40;99.90;;;;;;5014581;28;20270;-48
2022/11/29 05:08:51;;;;;;;5.50;2.60;;;6.40;99.90;;;;;;4996314;28;20194;-47
2022/11/29 05:11:36;;;;;;;5.47;2.67;;;6.40;99.90;;;;;;5013679;28;20206;-48
2022/11/29 05:14:23;;;;;;;7.73;4.53;;;6.40;99.90;;;;;;4996884;28;20179;-47
2022/11/29 05:17:08;;;;;;;8.37;3.47;;;6.40;99.90;;;;;;5013645;28;20209;-48
2022/11/29 05:19:52;;;;;;;5.43;2.70;;;6.40;99.90;;;;;;4996717;28;20175;-47
2022/11/29 05:22:28;;;;;;;9.53;3.00;;;6.40;99.90;;;;;;4996750;28;20229;-49
2022/11/29 05:25:06;;;;;;;7.63;2.60;;;6.40;99.90;;;;;;5014241;28;20202;-49
2022/11/29 05:27:41;;;;;;;6.27;2.40;;;6.40;99.90;;;;;;5012132;28;20187;-49
2022/11/29 05:30:20;;;;;;;6.27;2.90;;;6.40;99.90;;;;;;4995744;28;20174;-49
2022/11/29 05:33:08;;;;;;;7.67;2.73;;;6.40;99.90;;;;;;5024327;28;20213;-47
2022/11/29 05:35:54;;;;;;;6.87;2.50;;;6.40;99.90;;;;;;4979729;28;20284;-48
2022/11/29 05:38:30;;;;;;;4.93;2.70;;;6.40;99.90;;;;;;4996003;28;20191;-48
2022/11/29 05:41:24;;;;;;;6.13;2.50;;;6.50;99.90;;;;;;4996341;28;20188;-49
2022/11/29 05:44:23;;;;;;;7.40;2.63;;;6.50;99.90;;;;;;4995757;28;20197;-48
2022/11/29 05:47:02;;;;;;;6.83;2.60;;;6.50;99.90;;;;;;4995535;28;20198;-47
2022/11/29 05:49:53;;;;;;;5.67;3.00;;;6.50;99.90;;;;;;4992899;28;20191;-49
2022/11/29 05:52:42;;;;;;;5.00;2.60;;;6.50;99.90;;;;;;5011209;28;20202;-48
2022/11/29 05:55:14;;;;;;;4.40;2.57;;;6.50;99.90;;;;;;5013188;28;20198;-48
2022/11/29 05:57:52;;;;;;;5.30;3.20;;;6.40;99.90;;;;;;4979368;28;20310;-49
2022/11/29 06:00:18;;;;;;;5.17;3.20;;;6.50;99.90;;;;;;5009525;28;20195;-48
2022/11/29 06:03:13;;;;;;;6.47;2.93;;;6.40;99.90;;;;;;4995015;28;20197;-48
2022/11/29 06:06:01;;;;;;;5.07;3.03;;;6.40;99.90;;;;;;4994615;28;20194;-48
2022/11/29 06:08:47;;;;;;;8.37;3.27;;;6.40;99.90;;;;;;4975944;28;20287;-47
2022/11/29 06:11:22;;;;;;;6.00;3.30;;;6.40;99.90;;;;;;5010321;28;20212;-48
2022/11/29 06:13:59;;;;;;;8.40;3.43;;;6.40;99.90;;;;;;4995412;28;20209;-48
2022/11/29 06:16:55;;;;;;;4.40;2.73;;;6.40;99.90;;;;;;4979521;28;20214;-49
2022/11/29 06:19:40;;;;;;;6.17;2.60;;;6.40;99.90;;;;;;4978590;28;20665;-48
2022/11/29 06:22:24;;;;;;;5.23;2.70;;;6.30;99.90;;;;;;5003773;28;20705;-48
2022/11/29 06:25:15;;;;;;;6.47;3.10;;;6.30;99.90;;;;;;4979041;28;20186;-48
2022/11/29 06:27:56;;;;;;;6.47;2.90;;;6.30;99.90;;;;;;5012998;28;20260;-48
2022/11/29 06:30:28;;;;;;;5.97;3.30;;;6.30;99.90;;;;;;4994482;28;20187;-48
2022/11/29 06:33:20;;;;;;;6.93;3.83;;;6.30;99.90;;;;;;4995433;28;20344;-48
2022/11/29 06:36:12;;;;;;;7.97;3.50;;;6.30;99.90;;;;;;5011886;28;20235;-48
2022/11/29 06:38:38;;;;;;;11.67;4.10;;;6.30;99.90;;;;;;4975739;28;20196;-47
2022/11/29 06:41:05;;;;;;;6.43;3.70;;;6.30;99.90;;;;;;4991914;28;20215;-48
2022/11/29 06:43:32;;;;;;;6.77;3.47;;;6.30;99.90;;;;;;4994186;28;20194;-48
2022/11/29 06:46:08;;;;;;;6.97;3.53;;;6.30;99.90;;;;;;4978853;28;20181;-49
2022/11/29 06:48:44;;;;;;;5.80;2.90;;;6.30;99.90;;;;;;4993553;28;20198;-48
2022/11/29 06:51:39;;;;;;;5.90;3.10;;;6.40;99.90;;;;;;5059195;22;20193;-32
2022/11/29 06:54:18;;;;;;;7.60;3.13;;;6.40;99.90;;;;;;4995648;28;20182;-32
2022/11/29 06:56:47;;;;;;;7.87;3.20;;;6.40;99.90;;;;;;4995508;28;20231;-32
2022/11/29 06:59:43;;;;;;;5.47;2.80;;;6.40;99.90;;;;;;5011288;28;20186;-32
2022/11/29 07:02:34;;;;;;;4.87;2.73;;;6.40;99.90;;;;;;4991484;28;20249;-33
2022/11/29 07:05:19;;;;;;;6.33;3.13;;;6.40;99.90;;;;;;4975218;28;20186;-32
2022/11/29 07:07:47;;;;;;;6.43;3.10;;;6.40;99.90;;;;;;4975206;28;20182;-32
2022/11/29 07:10:18;;;;;;;6.53;2.97;;;6.40;99.90;;;;;;4991395;28;20190;-32
2022/11/29 07:12:45;;;;;;;6.30;3.20;;;6.40;99.90;;;;;;4992625;28;20209;-44
2022/11/29 07:15:17;;;;;;;6.87;3.70;;;6.40;99.90;;;;;;4991255;28;20195;-43
2022/11/29 07:18:06;;;;;;;5.77;3.30;;;6.40;99.90;;;;;;4990611;28;20239;-43
2022/11/29 07:20:47;;;;;;;6.60;3.73;;;6.40;99.90;;;;;;4969454;28;20199;-44
2022/11/29 07:23:35;;;;;;;5.27;3.17;;;6.40;99.90;;;;;;4958881;28;20207;-40
2022/11/29 07:26:10;;;;;;;6.60;3.27;;;6.40;99.90;;;;;;4974720;28;20188;-44
2022/11/29 07:28:45;;;;;;;5.60;3.47;;;6.40;99.90;;;;;;4990942;28;20206;-43
2022/11/29 07:31:42;;;;;;;10.10;3.60;;;6.40;99.90;;;;;;4974676;28;20183;-44
2022/11/29 07:34:20;;;;;;;11.27;4.03;;;6.40;99.90;;;;;;4958571;28;20187;-44
2022/11/29 07:37:22;;;;;;;7.90;4.97;;;6.50;99.90;;;;;;4958505;28;20310;-44
2022/11/29 07:39:54;;;;;;;10.10;5.37;;;6.50;99.90;;;;;;4974647;28;20198;-43
2022/11/29 07:42:34;;;;;;;13.07;7.77;;;6.50;99.90;;;;;;4958060;28;20215;-44
2022/11/29 07:45:19;;;;;;;14.70;9.17;;;6.50;99.90;;;;;;4975122;28;20257;-43
2022/11/29 07:47:45;;;;;;;18.40;9.67;;;6.50;99.90;;;;;;4976019;28;20187;-44
2022/11/29 07:50:12;;;;;;;7.83;5.90;;;6.50;99.90;;;;;;4975926;28;20290;-43
2022/11/29 07:52:38;;;;;;;11.53;4.37;;;6.40;99.90;;;;;;4983556;28;20222;-43
2022/11/29 07:55:04;;;;;;;8.47;3.70;;;6.40;99.90;;;;;;4977058;28;20191;-42
2022/11/29 07:57:30;;;;;;;9.03;3.67;;;6.50;99.90;;;;;;4972225;28;20211;-42
2022/11/29 07:59:56;;;;;;;7.90;3.17;;;6.50;99.90;;;;;;4970031;28;20220;-43
2022/11/29 08:02:29;;;;;;;7.70;3.20;;;6.40;99.90;;;;;;4972132;28;20278;-43
2022/11/29 08:04:55;;;;;;;6.00;3.13;;;6.40;99.90;;;;;;4978272;28;20183;-44
2022/11/29 08:07:21;;;;;;;8.63;3.77;;;6.40;99.90;;;;;;4992431;28;20183;-43
2022/11/29 08:09:47;;;;;;;4.70;3.00;;;6.40;99.90;;;;;;4989418;28;20197;-43
2022/11/29 08:12:13;;;;;;;5.40;3.07;;;6.40;99.90;;;;;;4972365;28;20235;-44
2022/11/29 08:14:39;;;;;;;8.17;3.50;;;6.40;99.90;;;;;;4988673;28;20190;-43
2022/11/29 08:17:07;;;;;;;6.23;3.40;;;6.40;99.90;;;;;;4973745;28;20250;-44
2022/11/29 08:19:32;;;;;;;4.77;3.50;;;6.40;99.90;;;;;;4953520;28;20282;-44
2022/11/29 08:21:58;;;;;;;6.90;3.93;;;6.40;99.90;;;;;;4988717;28;20297;-42
2022/11/29 08:24:25;;;;;;;4.60;3.50;;;6.40;99.90;;;;;;4972188;28;20189;-43
2022/11/29 08:26:51;;;;;;;9.20;3.60;;;6.40;99.90;;;;;;4972082;28;20276;-43
2022/11/29 08:29:17;;;;;;;5.20;3.80;;;6.40;99.90;;;;;;4971297;28;20271;-43
2022/11/29 08:31:44;;;;;;;6.40;4.10;;;6.40;99.90;;;;;;4988984;28;20198;-42
2022/11/29 08:34:10;;;;;;;7.87;4.10;;;6.50;99.90;;;;;;4970558;28;20218;-44
2022/11/29 08:36:36;;;;;;;9.60;4.70;;;6.50;99.90;;;;;;4983446;28;20213;-44
2022/11/29 08:39:03;;;;;;;7.73;4.47;;;6.50;99.90;;;;;;4975780;28;20557;-44
2022/11/29 08:41:29;;;;;;;8.90;3.93;;;6.50;99.90;;;;;;4970655;28;20209;-44
2022/11/29 08:43:57;;;;;;;12.07;5.03;;;6.50;99.90;;;;;;4971520;28;20299;-41
2022/11/29 08:47:34;;;;;;;6.63;4.63;;;6.50;99.90;;;;;;4961773;28;20197;-41
2022/11/29 08:49:09;;;;;;;7.90;4.30;;;6.50;99.90;;;;;;4986684;28;20186;-43
2022/11/29 08:51:34;;;;;;;11.03;4.30;;;6.50;99.90;;;;;;4962811;28;20231;-43
2022/11/29 08:54:00;;;;;;;8.83;4.43;;;6.50;99.90;;;;;;4986096;28;20274;-43
2022/11/29 08:56:26;;;;;;;9.47;4.17;;;6.60;99.90;;;;;;4971476;28;20215;-43
2022/11/29 08:58:53;;;;;;;13.60;6.97;;;6.60;99.90;;;;;;4970907;28;20243;-43
2022/11/29 09:01:20;;;;;;;22.50;10.20;;;6.60;99.90;;;;;;4970208;28;20211;-44
2022/11/29 09:04:05;;;;;;;41.70;22.27;;;6.60;99.90;;;;;;4954919;28;20184;-43
2022/11/29 09:06:37;;;;;;;19.10;11.00;;;6.60;99.90;;;;;;4970266;28;20204;-44
2022/11/29 09:09:03;;;;;;;14.53;7.37;;;6.70;99.90;;;;;;5002706;28;20267;-44
2022/11/29 09:11:31;;;;;;;9.37;5.63;;;6.70;99.90;;;;;;4970146;28;20211;-44
2022/11/29 09:14:01;;;;;;;12.57;6.03;;;6.70;99.90;;;;;;4980874;28;20191;-44
2022/11/29 09:16:29;;;;;;;11.60;7.07;;;6.70;99.90;;;;;;4974238;28;20245;-43
2022/11/29 09:18:56;;;;;;;13.23;7.27;;;6.70;99.90;;;;;;4991837;28;20210;-44
2022/11/29 09:21:26;;;;;;;12.63;5.70;;;6.70;99.90;;;;;;4981495;28;20198;-38
2022/11/29 09:23:57;;;;;;;9.37;5.60;;;6.70;99.90;;;;;;4979076;28;20174;-44
2022/11/29 09:26:25;;;;;;;5.77;4.93;;;6.70;99.90;;;;;;4977141;28;20217;-43
2022/11/29 09:28:51;;;;;;;7.20;4.50;;;6.70;99.90;;;;;;4974721;28;20192;-43
2022/11/29 09:31:18;;;;;;;9.30;4.90;;;6.70;99.90;;;;;;4994061;28;20458;-43
2022/11/29 09:33:45;;;;;;;5.93;4.33;;;6.70;99.90;;;;;;4996328;28;20191;-44
2022/11/29 09:36:11;;;;;;;9.77;4.40;;;6.80;99.90;;;;;;4977549;28;20225;-42
2022/11/29 09:38:37;;;;;;;9.40;4.63;;;6.80;99.90;;;;;;4979952;28;20637;-40
2022/11/29 09:41:31;;;;;;;6.73;4.80;;;6.80;99.90;;;;;;4995966;28;20214;-41
2022/11/29 09:44:23;;;;;;;10.40;4.60;;;6.80;99.90;;;;;;4975213;28;20180;-44
2022/11/29 09:47:31;;;;;;;8.27;4.70;;;6.90;99.90;;;;;;4949461;28;20199;-43
2022/11/29 09:50:34;;;;;;;9.87;3.93;;;6.90;99.90;;;;;;4939887;29;20214;-40
2022/11/29 09:53:16;;;;;;;10.53;6.23;;;6.90;99.90;;;;;;4934305;29;20384;-44
2022/11/29 09:55:54;;;;;;;9.73;5.57;;;7.00;99.90;;;;;;4964780;28;20210;-43
2022/11/29 09:58:26;;;;;;;8.50;5.10;;;7.00;99.90;;;;;;4973849;28;20265;-44
2022/11/29 10:00:58;;;;;;;9.23;5.20;;;7.00;99.90;;;;;;4974287;28;20519;-43
2022/11/29 10:03:33;;;;;;;11.77;6.23;;;7.00;99.90;;;;;;4974217;28;20188;-43
2022/11/29 10:06:07;;;;;;;10.10;5.37;;;7.00;99.90;;;;;;4980784;28;20195;-44
2022/11/29 10:08:40;;;;;;;10.00;5.57;;;7.10;99.90;;;;;;4955585;28;20192;-43
2022/11/29 10:11:15;;;;;;;7.20;4.97;;;7.00;99.90;;;;;;4972203;28;20218;-43
2022/11/29 10:13:48;;;;;;;7.33;4.73;;;7.10;99.90;;;;;;4979246;28;20184;-44
2022/11/29 10:16:21;;;;;;;7.73;5.33;;;7.10;99.90;;;;;;4973561;28;20207;-44
2022/11/29 10:19:25;;;;;;;10.33;7.00;;;7.10;99.90;;;;;;4980399;28;20171;-44
2022/11/29 10:22:05;;;;;;;13.27;5.47;;;7.10;99.90;;;;;;4961439;28;20211;-44
2022/11/29 10:24:32;;;;;;;7.30;4.97;;;7.10;99.90;;;;;;4960280;28;20185;-43
2022/11/29 10:26:59;;;;;;;11.50;7.63;;;7.10;99.90;;;;;;4961804;28;20215;-44
2022/11/29 10:29:25;;;;;;;18.73;12.50;;;7.20;99.90;;;;;;4988686;28;20194;-43
2022/11/29 10:31:55;;;;;;;14.33;8.53;;;7.20;99.90;;;;;;4987630;28;20195;-44
2022/11/29 10:34:24;;;;;;;9.57;6.20;;;7.20;99.90;;;;;;4973786;28;20208;-44
2022/11/29 10:36:58;;;;;;;11.40;7.80;;;7.20;99.90;;;;;;4963663;28;20238;-44
2022/11/29 10:39:38;;;;;;;6.43;4.33;;;7.20;99.90;;;;;;4990414;28;20176;-43
2022/11/29 10:42:47;;;;;;;6.60;4.50;;;7.20;99.90;;;;;;4973579;28;20254;-43
2022/11/29 10:45:00;;;;;;;9.77;4.40;;;7.20;99.90;;;;;;4990056;28;20179;-43
2022/11/29 10:47:27;;;;;;;7.83;4.30;;;7.20;99.90;;;;;;4955741;28;20191;-42
2022/11/29 10:49:53;;;;;;;6.90;4.17;;;7.30;99.90;;;;;;4971977;28;20267;-43
2022/11/29 10:52:21;;;;;;;8.53;4.23;;;7.30;99.90;;;;;;4988885;28;20353;-43
2022/11/29 10:54:50;;;;;;;6.87;4.60;;;7.30;99.90;;;;;;4972901;28;20191;-43
2022/11/29 10:57:20;;;;;;;7.13;4.23;;;7.30;99.90;;;;;;4973270;28;20250;-43
2022/11/29 11:00:09;;;;;;;6.77;4.40;;;7.30;99.90;;;;;;4964401;28;20269;-43
2022/11/29 11:02:35;;;;;;;11.00;5.07;;;7.40;99.90;;;;;;4988819;28;20214;-43
2022/11/29 11:05:11;;;;;;;7.00;4.80;;;7.40;99.90;;;;;;4976360;28;20180;-43
2022/11/29 11:07:38;;;;;;;5.60;4.23;;;7.40;99.90;;;;;;4972968;28;20180;-43
2022/11/29 11:10:27;;;;;;;5.40;4.03;;;7.40;99.90;;;;;;4969752;28;20197;-44
2022/11/29 11:13:03;;;;;;;5.90;4.00;;;7.40;99.90;;;;;;4972641;28;20200;-43
2022/11/29 11:15:32;;;;;;;6.37;3.70;;;7.40;99.90;;;;;;4986957;28;20184;-43
2022/11/29 11:18:03;;;;;;;6.80;4.03;;;7.40;99.90;;;;;;4988490;28;20188;-44
2022/11/29 11:20:36;;;;;;;6.17;3.17;;;7.50;99.90;;;;;;4965129;28;20266;-43
2022/11/29 11:23:25;;;;;;;3.97;3.00;;;7.50;99.90;;;;;;4956411;28;20202;-43
2022/11/29 11:26:03;;;;;;;4.07;3.20;;;7.50;99.90;;;;;;4971570;28;20641;-44
2022/11/29 11:28:45;;;;;;;6.33;3.17;;;7.50;99.90;;;;;;4988602;28;20176;-43
2022/11/29 11:31:13;;;;;;;6.40;3.00;;;7.50;99.90;;;;;;4987338;28;20278;-43
2022/11/29 11:33:40;;;;;;;5.73;3.20;;;7.40;99.90;;;;;;4972841;28;20196;-43
2022/11/29 11:36:19;;;;;;;5.07;3.10;;;7.50;99.90;;;;;;4972462;28;20213;-44
2022/11/29 11:38:51;;;;;;;6.50;3.07;;;7.50;99.90;;;;;;4982274;28;20245;-40
2022/11/29 11:44:24;;;;;;;5.93;3.50;;;7.50;99.90;;;;;;4973958;28;20191;-43
2022/11/29 11:46:51;;;;;;;5.53;3.93;;;7.50;99.90;;;;;;4972861;28;20184;-43
2022/11/29 11:49:46;;;;;;;7.30;3.67;;;7.50;99.90;;;;;;4991957;28;20179;-43
2022/11/29 11:52:36;;;;;;;5.67;3.53;;;7.60;99.90;;;;;;4974329;28;20222;-43
2022/11/29 11:55:20;;;;;;;5.47;4.23;;;7.60;99.90;;;;;;4957963;28;20200;-43
2022/11/29 11:58:00;;;;;;;6.33;4.60;;;7.60;99.90;;;;;;4957926;28;20203;-44
2022/11/29 12:00:50;;;;;;;7.70;4.67;;;7.60;99.90;;;;;;4974237;28;20176;-44
2022/11/29 12:03:31;;;;;;;6.00;4.50;;;7.70;99.90;;;;;;4973191;28;20206;-44
2022/11/29 12:06:20;;;;;;;8.33;4.87;;;7.70;99.90;;;;;;4988212;28;20303;-43
2022/11/29 12:08:56;;;;;;;7.57;4.90;;;7.60;99.90;;;;;;4932297;28;20649;-43
2022/11/29 12:11:28;;;;;;;5.70;4.23;;;7.60;99.90;;;;;;4989586;28;20199;-42
2022/11/29 12:13:58;;;;;;;6.27;4.73;;;7.60;99.90;;;;;;4974031;28;20187;-44
2022/11/29 12:16:30;;;;;;;8.27;4.37;;;7.70;99.90;;;;;;4956985;28;20295;-43
2022/11/29 12:19:03;;;;;;;6.10;5.00;;;7.70;99.90;;;;;;4959153;28;20172;-43
2022/11/29 12:21:41;;;;;;;6.30;4.90;;;7.70;99.90;;;;;;4969445;28;20200;-43
2022/11/29 12:24:47;;;;;;;6.67;4.77;;;7.70;99.90;;;;;;4971565;28;20173;-44
2022/11/29 12:27:15;;;;;;;6.10;4.83;;;7.70;99.90;;;;;;4928159;28;20195;-44
2022/11/29 12:29:41;;;;;;;7.17;5.07;;;7.70;99.90;;;;;;4974004;28;20188;-43
2022/11/29 12:32:10;;;;;;;8.07;5.03;;;7.70;99.90;;;;;;4973621;28;20204;-42
2022/11/29 12:35:02;;;;;;;9.53;4.90;;;7.70;99.90;;;;;;4957454;28;20188;-43
2022/11/29 12:37:46;;;;;;;5.77;4.50;;;7.80;99.90;;;;;;4971566;28;20210;-44
2022/11/29 12:40:43;;;;;;;6.00;4.40;;;7.80;99.90;;;;;;4971219;28;20190;-40
2022/11/29 12:43:46;;;;;;;6.87;4.00;;;7.80;99.90;;;;;;4989464;28;20648;-41
2022/11/29 12:46:33;;;;;;;5.93;4.53;;;7.80;99.90;;;;;;4974032;28;20180;-42
2022/11/29 12:49:31;;;;;;;5.40;3.90;;;7.90;99.90;;;;;;4992040;28;20188;-40
2022/11/29 12:52:40;;;;;;;5.63;3.97;;;7.90;99.90;;;;;;4975918;28;20211;-44
2022/11/29 12:55:19;;;;;;;7.83;4.47;;;7.90;99.90;;;;;;4983268;28;20189;-38
2022/11/29 12:58:21;;;;;;;4.30;3.83;;;7.90;99.90;;;;;;4977437;28;20203;-43
2022/11/29 13:01:14;;;;;;;5.07;4.17;;;7.90;99.90;;;;;;4937563;28;20313;-44
2022/11/29 13:03:56;;;;;;;5.57;3.80;;;7.90;99.90;;;;;;4958073;28;20195;-43
2022/11/29 13:06:52;;;;;;;7.73;4.80;;;7.90;99.90;;;;;;4980247;28;20196;-42
2022/11/29 13:09:21;;;;;;;7.63;4.57;;;7.90;99.90;;;;;;4982018;28;20283;-44
2022/11/29 13:12:16;;;;;;;6.27;4.13;;;7.90;99.90;;;;;;4980565;28;20212;-43
2022/11/29 13:14:48;;;;;;;6.87;4.03;;;8.00;99.90;;;;;;4954438;28;20192;-42
2022/11/29 13:17:33;;;;;;;6.00;4.60;;;8.00;99.90;;;;;;4989430;28;20235;-43
2022/11/29 13:20:15;;;;;;;5.90;4.20;;;8.00;99.90;;;;;;4989634;28;20188;-43
2022/11/29 13:22:52;;;;;;;5.27;4.33;;;8.00;99.90;;;;;;4965831;28;20208;-42
2022/11/29 13:25:31;;;;;;;7.60;5.10;;;8.10;99.90;;;;;;4974015;28;20187;-44
2022/11/29 13:28:02;;;;;;;7.23;4.83;;;8.10;99.90;;;;;;4975447;28;20195;-44
2022/11/29 13:30:28;;;;;;;6.60;4.93;;;8.10;99.90;;;;;;4973002;28;20184;-44
2022/11/29 13:33:06;;;;;;;6.70;4.90;;;8.10;99.90;;;;;;4991331;28;20204;-42
2022/11/29 13:35:45;;;;;;;5.87;4.57;;;8.10;99.90;;;;;;4990896;28;20211;-42
2022/11/29 13:38:25;;;;;;;5.30;4.60;;;8.10;99.90;;;;;;4974232;28;20192;-42
2022/11/29 13:40:58;;;;;;;6.13;4.60;;;8.10;99.90;;;;;;4979261;28;20179;-43
2022/11/29 13:44:08;;;;;;;5.17;4.60;;;8.10;99.90;;;;;;4974392;28;20299;-41
2022/11/29 13:46:45;;;;;;;6.27;4.30;;;8.00;99.90;;;;;;4953497;28;20192;-43
2022/11/29 13:49:48;;;;;;;5.70;4.57;;;8.00;99.90;;;;;;4963250;28;20198;-44
2022/11/29 13:52:40;;;;;;;5.90;4.77;;;8.00;99.90;;;;;;4989373;28;20266;-43
2022/11/29 13:55:10;;;;;;;5.97;4.57;;;7.90;99.90;;;;;;4971607;28;20246;-44
2022/11/29 13:57:49;;;;;;;5.87;4.27;;;7.90;99.90;;;;;;4971686;28;20691;-42